Time;durP1;ratioP1;P1;durP2;ratioP2;P2;SDS_P1;SDS_P2;PMS_P1;PMS_P2;Temp;Humidity;BMP_temperature;BMP_pressure;BME280_temperature;BME280_humidity;BME280_pressure;Samples;Min_cycle;Max_cycle;Signal;HPM_P1;HPM_P2
2023/09/25 00:00:32;;;;;;;1.02;0.95;;;;;;;20.31;100.00;100817.09;5063798;28;20090;-86
2023/09/25 00:02:59;;;;;;;0.82;0.82;;;;;;;20.00;100.00;100789.66;5051923;28;20042;-87
2023/09/25 00:05:25;;;;;;;1.65;1.55;;;;;;;19.72;100.00;100740.91;5033877;28;20049;-88
2023/09/25 00:07:51;;;;;;;1.60;1.50;;;;;;;19.99;100.00;100776.41;5027504;28;20049;-88
2023/09/25 00:10:17;;;;;;;0.50;0.30;;;;;;;19.82;100.00;100747.66;5027327;28;20654;-88
2023/09/25 00:12:42;;;;;;;4.05;1.45;;;;;;;20.22;100.00;100840.44;5026894;28;20064;-88
2023/09/25 00:15:08;;;;;;;1.55;1.45;;;;;;;20.42;100.00;100853.13;5026695;28;20173;-86
2023/09/25 00:17:35;;;;;;;1.42;1.33;;;;;;;20.14;100.00;100802.53;5009512;28;20036;-85
2023/09/25 00:20:00;;;;;;;1.73;1.63;;;;;;;19.82;100.00;100767.16;5027338;28;20053;-87
2023/09/25 00:22:26;;;;;;;2.63;1.50;;;;;;;20.07;100.00;100819.66;5027267;28;20060;-86
2023/09/25 00:24:52;;;;;;;1.92;1.30;;;;;;;20.10;100.00;100862.16;5009092;28;20140;-87
2023/09/25 00:27:17;;;;;;;2.60;2.40;;;;;;;19.85;100.00;100794.63;5033544;28;20025;-88
2023/09/25 00:29:43;;;;;;;1.25;1.05;;;;;;;19.95;100.00;100844.91;5047464;28;20044;-88
2023/09/25 00:32:09;;;;;;;1.25;1.02;;;;;;;20.23;100.00;100873.31;5040889;28;20571;-88
2023/09/25 00:34:34;;;;;;;1.75;1.60;;;;;;;20.00;100.00;100836.75;5027001;28;20653;-85
2023/09/25 00:36:59;;;;;;;1.48;1.25;;;;;;;20.03;100.00;100855.28;5026708;28;20033;-86
2023/09/25 00:39:25;;;;;;;1.48;1.38;;;;;;;19.90;100.00;100821.97;5027123;28;20038;-87
2023/09/25 00:41:50;;;;;;;1.67;1.55;;;;;;;19.97;100.00;100843.06;5009634;28;20029;-86
2023/09/25 00:44:18;;;;;;;10.45;2.47;;;;;;;19.73;100.00;100799.41;5026967;28;20042;-88
2023/09/25 00:46:44;;;;;;;0.95;0.90;;;;;;;19.45;100.00;100759.44;5015932;28;20425;-87
2023/09/25 00:49:11;;;;;;;4.45;3.50;;;;;;;19.89;100.00;100831.75;5030775;28;20037;-88
2023/09/25 00:51:37;;;;;;;0.68;0.55;;;;;;;19.61;100.00;100805.09;5008896;28;20404;-86
2023/09/25 00:54:03;;;;;;;2.28;1.42;;;;;;;19.61;100.00;100805.09;5026822;28;20031;-88
2023/09/25 00:56:28;;;;;;;1.33;1.15;;;;;;;20.08;100.00;100874.66;5043606;28;20033;-87
2023/09/25 00:58:54;;;;;;;2.35;1.23;;;;;;;19.30;100.00;100767.91;5027615;28;20095;-87
2023/09/25 01:01:20;;;;;;;0.85;0.85;;;;;;;18.50;100.00;100621.34;5033125;28;20049;-87
2023/09/25 01:03:47;;;;;;;0.43;0.43;;;;;;;19.25;100.00;100744.13;5012972;28;20064;-86
2023/09/25 01:06:13;;;;;;;1.35;1.02;;;;;;;19.34;100.00;100797.06;5030554;28;20057;-87
2023/09/25 01:08:40;;;;;;;2.15;1.90;;;;;;;19.78;100.00;100849.88;5030778;28;20068;-87
2023/09/25 01:11:05;;;;;;;2.40;1.83;;;;;;;19.71;100.00;100846.53;5029796;28;20498;-88
2023/09/25 01:13:31;;;;;;;3.22;1.23;;;;;;;19.44;100.00;100815.41;5030112;28;20060;-88
2023/09/25 01:15:56;;;;;;;2.63;1.65;;;;;;;19.40;100.00;100811.94;5029858;28;20064;-85
2023/09/25 01:18:22;;;;;;;1.52;1.13;;;;;;;19.30;100.00;100786.56;5011880;28;20108;-85
2023/09/25 01:20:47;;;;;;;1.15;1.05;;;;;;;19.88;100.00;100887.72;5030984;28;20033;-87
2023/09/25 01:23:13;;;;;;;1.50;1.35;;;;;;;19.31;100.00;100818.41;5034217;28;20048;-88
2023/09/25 01:25:38;;;;;;;1.70;1.45;;;;;;;19.74;100.00;100889.06;5059175;28;20076;-88
2023/09/25 01:28:04;;;;;;;0.68;0.68;;;;;;;19.31;100.00;100788.28;5060311;28;20036;-85
2023/09/25 01:30:30;;;;;;;3.85;3.50;;;;;;;19.70;100.00;100903.38;5039431;28;20040;-86
2023/09/25 01:32:56;;;;;;;1.77;1.55;;;;;;;19.18;100.00;100804.63;5038573;28;20500;-84
2023/09/25 01:35:26;;;;;;;1.00;0.77;;;;;;;19.72;100.00;100861.59;5030476;28;20041;-87
2023/09/25 01:37:57;;;;;;;4.20;2.45;;;;;;;19.27;100.00;100800.81;5030250;28;20057;-87
2023/09/25 01:40:24;;;;;;;2.47;2.28;;;;;;;19.88;100.00;100917.03;5033881;28;20046;-86
2023/09/25 01:42:49;;;;;;;1.00;0.75;;;;;;;19.00;100.00;100772.38;5043359;28;20056;-87
2023/09/25 01:45:17;;;;;;;2.33;1.77;;;;;;;19.87;100.00;100910.84;5038427;28;20029;-87
2023/09/25 01:47:50;;;;;;;0.40;0.35;;;;;;;19.37;100.00;100806.72;5053438;28;20032;-86
2023/09/25 01:50:24;;;;;;;2.78;2.58;;;;;;;19.37;100.00;100804.06;5029577;28;20061;-85
2023/09/25 01:52:56;;;;;;;2.20;2.05;;;;;;;19.67;100.00;100871.47;5030003;28;20073;-87
2023/09/25 01:55:22;;;;;;;2.95;2.65;;;;;;;19.74;100.00;100888.19;5037756;28;20127;-89
2023/09/25 01:57:48;;;;;;;1.45;1.10;;;;;;;19.61;100.00;100850.34;5046454;28;20056;-86
2023/09/25 02:00:16;;;;;;;2.55;2.33;;;;;;;19.16;100.00;100805.56;5049708;28;20064;-87
2023/09/25 02:02:41;;;;;;;2.47;2.08;;;;;;;19.21;100.00;100814.28;5050425;28;20036;-88
2023/09/25 02:05:07;;;;;;;20.60;5.07;;;;;;;19.29;100.00;100808.72;5049975;28;20048;-87
2023/09/25 02:07:33;;;;;;;4.82;1.75;;;;;;;19.17;100.00;100810.88;5049932;28;20045;-87
2023/09/25 02:09:59;;;;;;;4.50;3.40;;;;;;;19.46;100.00;100873.00;5049176;28;20110;-87
2023/09/25 02:12:25;;;;;;;2.70;2.47;;;;;;;19.69;100.00;100911.38;5048532;28;20045;-88
2023/09/25 02:14:52;;;;;;;3.08;2.65;;;;;;;19.74;100.00;100918.34;5049054;28;20091;-87
2023/09/25 02:17:19;;;;;;;4.43;3.65;;;;;;;19.53;100.00;100879.88;5048458;28;20127;-87
2023/09/25 02:19:44;;;;;;;6.40;2.33;;;;;;;19.68;100.00;100894.56;5037082;28;20044;-87
2023/09/25 02:22:10;;;;;;;1.95;1.85;;;;;;;19.02;100.00;100821.94;5068714;28;20047;-86
2023/09/25 02:24:38;;;;;;;1.13;1.05;;;;;;;19.10;100.00;100829.69;5064156;28;20916;-87
2023/09/25 02:27:05;;;;;;;1.80;1.52;;;;;;;19.69;100.00;100917.63;5056279;28;20024;-86
2023/09/25 02:29:32;;;;;;;4.32;4.03;;;;;;;18.88;100.00;100805.50;5072710;28;20032;-87
2023/09/25 02:31:57;;;;;;;4.05;3.30;;;;;;;19.43;100.00;100928.97;5053561;28;20041;-86
2023/09/25 02:34:23;;;;;;;1.73;1.25;;;;;;;19.03;100.00;100830.78;5050346;28;20118;-89
2023/09/25 02:36:48;;;;;;;3.83;3.08;;;;;;;19.25;100.00;100881.59;5068494;28;20561;-89
2023/09/25 02:39:15;;;;;;;3.58;2.22;;;;;;;19.21;100.00;100858.66;5058827;28;20052;-88
2023/09/25 02:41:40;;;;;;;5.47;4.47;;;;;;;19.18;100.00;100884.44;5049140;28;20064;-87
2023/09/25 02:44:06;;;;;;;3.08;2.88;;;;;;;19.16;100.00;100920.84;5030679;28;20091;-87
2023/09/25 02:46:32;;;;;;;4.45;2.58;;;;;;;19.29;100.00;100928.47;5060878;28;20503;-86
2023/09/25 02:48:57;;;;;;;4.53;2.05;;;;;;;19.18;100.00;100911.03;5055079;28;20041;-87
2023/09/25 02:51:23;;;;;;;2.95;1.58;;;;;;;19.11;100.00;100913.91;5048672;28;20485;-87
2023/09/25 02:53:48;;;;;;;3.67;3.38;;;;;;;19.37;100.00;100935.34;5048967;28;20114;-87
2023/09/25 02:56:14;;;;;;;4.45;3.10;;;;;;;19.41;100.00;100936.16;5048233;28;20049;-87
2023/09/25 02:58:39;;;;;;;2.80;2.45;;;;;;;18.61;100.00;100838.97;5048255;28;20055;-85
2023/09/25 03:01:05;;;;;;;4.07;3.78;;;;;;;18.70;100.00;100849.38;5048247;28;20072;-86
2023/09/25 03:03:30;;;;;;;2.22;1.98;;;;;;;18.73;100.00;100849.28;5048326;28;20052;-86
2023/09/25 03:05:56;;;;;;;2.80;2.60;;;;;;;18.72;100.00;100848.41;5048632;28;20505;-86
2023/09/25 03:08:22;;;;;;;0.90;0.88;;;;;;;19.23;100.00;100934.00;5047989;28;20068;-86
2023/09/25 03:10:47;;;;;;;1.55;1.45;;;;;;;19.16;100.00;100939.47;5030432;28;20531;-87
2023/09/25 03:13:13;;;;;;;2.40;2.08;;;;;;;19.24;100.00;100936.59;5046745;28;20503;-87
2023/09/25 03:15:39;;;;;;;2.33;2.13;;;;;;;18.55;100.00;100832.91;5051291;28;20037;-86
2023/09/25 03:18:04;;;;;;;2.25;1.75;;;;;;;19.17;100.00;100932.34;5061521;28;20429;-86
2023/09/25 03:20:30;;;;;;;2.13;1.95;;;;;;;18.54;100.00;100839.16;5047780;28;20071;-86
2023/09/25 03:22:56;;;;;;;2.00;1.48;;;;;;;19.01;100.00;100937.22;5048372;28;20063;-87
2023/09/25 03:25:22;;;;;;;2.58;2.33;;;;;;;19.22;100.00;100959.69;5047420;28;20076;-86
2023/09/25 03:27:49;;;;;;;2.47;2.28;;;;;;;18.68;100.00;100891.06;5058028;28;20052;-89
2023/09/25 03:30:15;;;;;;;8.85;3.80;;;;;;;18.91;100.00;100920.63;5066359;28;20094;-85
2023/09/25 03:32:42;;;;;;;3.15;2.78;;;;;;;19.05;100.00;100961.94;5068735;28;20323;-85
2023/09/25 03:35:08;;;;;;;2.28;2.08;;;;;;;18.89;100.00;100949.03;5062281;28;20618;-87
2023/09/25 03:37:33;;;;;;;3.03;1.90;;;;;;;18.47;100.00;100877.44;5049502;28;20056;-87
2023/09/25 03:39:59;;;;;;;3.28;2.13;;;;;;;18.19;100.00;100852.44;5049010;28;20045;-88
2023/09/25 03:42:25;;;;;;;1.85;1.63;;;;;;;18.82;100.00;100976.69;5047631;28;20492;-88
2023/09/25 03:44:51;;;;;;;3.95;2.35;;;;;;;18.83;100.00;100962.50;5051471;28;20020;-87
2023/09/25 03:47:18;;;;;;;2.50;2.30;;;;;;;19.05;100.00;101010.69;5047541;28;20044;-85
2023/09/25 03:49:44;;;;;;;3.42;3.15;;;;;;;19.02;100.00;100989.50;5047665;28;20051;-88
2023/09/25 03:52:10;;;;;;;9.70;2.78;;;;;;;18.98;100.00;100971.88;5047171;28;20396;-89
2023/09/25 03:54:36;;;;;;;2.40;2.20;;;;;;;18.96;100.00;100984.31;5048708;28;20053;-88
2023/09/25 03:57:01;;;;;;;7.53;3.67;;;;;;;18.43;100.00;100889.03;5068240;28;20514;-87
2023/09/25 03:59:27;;;;;;;1.33;1.20;;;;;;;19.03;100.00;100974.41;5049753;28;20056;-86
2023/09/25 04:01:52;;;;;;;6.57;1.30;;;;;;;19.01;100.00;100961.16;5067196;28;20453;-87
2023/09/25 04:04:18;;;;;;;2.33;2.15;;;;;;;19.21;100.00;100981.91;5052020;28;20045;-87
2023/09/25 04:06:43;;;;;;;1.95;1.83;;;;;;;19.01;100.00;100945.22;5047847;28;20502;-88
2023/09/25 04:09:10;;;;;;;2.70;1.35;;;;;;;19.08;100.00;100989.34;5047786;28;20041;-88
2023/09/25 04:11:35;;;;;;;1.58;1.15;;;;;;;18.58;100.00;100889.56;5030852;28;20327;-86
2023/09/25 04:14:02;;;;;;;2.88;2.53;;;;;;;19.27;100.00;101002.16;5071874;28;20098;-86
2023/09/25 04:16:33;;;;;;;3.42;3.13;;;;;;;18.77;100.00;100915.66;5071664;28;20461;-86
2023/09/25 04:18:59;;;;;;;4.55;3.75;;;;;;;18.64;100.00;100898.25;5056174;28;20025;-87
2023/09/25 04:21:24;;;;;;;2.92;2.72;;;;;;;18.90;100.00;100934.84;5029238;28;20260;-87
2023/09/25 04:23:50;;;;;;;3.22;2.17;;;;;;;18.77;100.00;100905.03;5048759;28;20396;-87
2023/09/25 04:26:16;;;;;;;3.05;1.08;;;;;;;18.84;100.00;100937.66;5047280;28;20073;-88
2023/09/25 04:28:42;;;;;;;3.95;2.00;;;;;;;19.28;100.00;101023.41;5062682;28;20111;-86
2023/09/25 04:31:10;;;;;;;3.55;2.22;;;;;;;18.64;100.00;100908.91;5045386;28;20136;-86
2023/09/25 04:33:36;;;;;;;3.25;2.63;;;;;;;19.33;100.00;101012.63;5047205;28;20099;-88
2023/09/25 04:36:03;;;;;;;2.50;1.58;;;;;;;18.77;100.00;100905.03;5045981;28;20104;-87
2023/09/25 04:38:30;;;;;;;1.10;1.05;;;;;;;19.30;100.00;101015.41;5046226;28;20398;-88
2023/09/25 04:40:56;;;;;;;1.83;1.55;;;;;;;18.55;100.00;100874.56;5028516;28;20072;-86
2023/09/25 04:43:22;;;;;;;2.22;1.67;;;;;;;19.35;100.00;101016.13;5049138;28;20539;-86
2023/09/25 04:45:51;;;;;;;5.65;2.63;;;;;;;18.64;100.00;100903.59;5046806;28;20521;-86
2023/09/25 04:48:18;;;;;;;3.30;1.48;;;;;;;18.95;100.00;100945.38;5045621;28;20155;-86
2023/09/25 04:50:44;;;;;;;2.33;2.10;;;;;;;19.14;100.00;100994.50;5046972;28;20044;-86
2023/09/25 04:53:10;;;;;;;2.17;1.98;;;;;;;18.92;100.00;100945.44;5045726;28;20037;-89
2023/09/25 04:55:39;;;;;;;2.17;1.48;;;;;;;18.76;100.00;100919.25;5056979;28;20083;-87
2023/09/25 04:58:04;;;;;;;1.33;1.23;;;;;;;19.11;100.00;100975.09;5066435;28;20127;-86
2023/09/25 05:00:32;;;;;;;3.08;2.38;;;;;;;19.33;100.00;100996.69;5067929;28;20147;-87
2023/09/25 05:02:58;;;;;;;3.50;2.80;;;;;;;19.46;100.00;101015.88;5068142;28;20040;-86
2023/09/25 05:05:24;;;;;;;2.30;2.10;;;;;;;19.69;100.00;101036.53;5067360;28;20472;-88
2023/09/25 05:07:51;;;;;;;4.13;3.70;;;;;;;19.23;100.00;100936.66;5066937;28;20079;-87
2023/09/25 05:10:22;;;;;;;2.80;2.08;;;;;;;19.12;100.00;100942.25;5048680;28;20052;-85
2023/09/25 05:12:48;;;;;;;2.03;1.83;;;;;;;19.64;100.00;101012.66;5066292;28;20087;-86
2023/09/25 05:15:15;;;;;;;2.28;2.08;;;;;;;19.41;100.00;100965.41;5027459;28;20382;-87
2023/09/25 05:17:41;;;;;;;4.22;3.55;;;;;;;19.35;100.00;100946.94;5046826;28;20025;-88
2023/09/25 05:20:12;;;;;;;2.53;2.22;;;;;;;19.68;100.00;100990.41;5044483;28;20044;-86
2023/09/25 05:22:38;;;;;;;2.88;2.67;;;;;;;19.27;100.00;100909.00;5046360;28;20492;-88
2023/09/25 05:25:07;;;;;;;1.75;1.63;;;;;;;19.58;100.00;100955.16;5046054;28;20041;-86
2023/09/25 05:27:35;;;;;;;3.83;3.53;;;;;;;19.18;100.00;100887.09;5039740;28;20062;-88
2023/09/25 05:30:05;;;;;;;1.33;1.23;;;;;;;20.22;100.00;101044.78;5086512;28;20333;-88
2023/09/25 05:32:34;;;;;;;1.55;1.30;;;;;;;20.06;100.00;101009.72;5087196;28;20039;-89
2023/09/25 05:34:59;;;;;;;2.67;2.22;;;;;;;20.27;100.00;101049.97;5086954;28;20052;-87
2023/09/25 05:37:25;;;;;;;1.58;1.13;;;;;;;19.60;100.00;100912.53;5067677;28;20024;-87
2023/09/25 05:39:50;;;;;;;1.80;1.30;;;;;;;20.31;100.00;101023.19;5086771;28;20028;-86
2023/09/25 05:42:17;;;;;;;3.03;2.72;;;;;;;19.92;100.00;100937.34;5062386;28;20037;-86
2023/09/25 05:44:44;;;;;;;4.93;4.43;;;;;;;20.48;100.00;101024.47;5048520;28;20055;-85
2023/09/25 05:47:09;;;;;;;5.80;2.65;;;;;;;20.64;100.00;101025.75;5046411;28;20053;-88
2023/09/25 05:49:35;;;;;;;1.70;0.90;;;;;;;20.44;100.00;100963.25;5068556;28;20136;-85
2023/09/25 05:52:00;;;;;;;4.20;2.53;;;;;;;20.20;100.00;100919.56;5068824;28;20055;-87
2023/09/25 05:54:26;;;;;;;4.10;2.58;;;;;;;20.92;100.00;101031.06;5052359;28;20041;-86
2023/09/25 05:56:51;;;;;;;3.80;3.45;;;;;;;21.01;100.00;101024.56;5054264;28;20075;-84
2023/09/25 05:59:17;;;;;;;1.85;1.75;;;;;;;20.77;100.00;100960.44;5048544;28;20416;-85
2023/09/25 06:01:44;;;;;;;3.08;2.85;;;;;;;20.71;100.00;100941.94;5050412;28;20045;-87
2023/09/25 06:04:10;;;;;;;3.85;2.35;;;;;;;20.69;100.00;100943.78;5051041;28;20135;-86
2023/09/25 06:06:35;;;;;;;1.55;1.45;;;;;;;21.25;100.00;101009.50;5069198;28;20555;-86
2023/09/25 06:09:02;;;;;;;3.35;2.53;;;;;;;20.73;100.00;100916.09;5070870;28;20040;-86
2023/09/25 06:11:28;;;;;;;20.10;3.72;;;;;;;21.28;100.00;100998.69;5049236;28;20040;-87
2023/09/25 06:13:53;;;;;;;2.65;1.75;;;;;;;21.44;100.00;101031.97;5048442;28;20415;-87
2023/09/25 06:16:19;;;;;;;0.47;0.47;;;;;;;21.60;100.00;101048.34;5049028;28;20045;-86
2023/09/25 06:18:45;;;;;;;4.10;2.35;;;;;;;20.83;100.00;100948.66;5050067;28;20126;-87
2023/09/25 06:21:13;;;;;;;3.63;2.05;;;;;;;21.08;100.00;100957.56;5050933;28;20457;-88
2023/09/25 06:23:43;;;;;;;3.80;1.23;;;;;;;21.52;100.00;101023.72;5049934;28;20028;-87
2023/09/25 06:26:08;;;;;;;1.85;1.42;;;;;;;21.57;100.00;101024.41;5030994;28;20505;-87
2023/09/25 06:28:34;;;;;;;2.63;2.03;;;;;;;21.28;100.00;100978.25;5074475;28;20039;-88
2023/09/25 06:31:00;;;;;;;3.35;3.05;;;;;;;21.24;100.00;100968.59;5071865;28;20453;-87
2023/09/25 06:33:25;;;;;;;1.42;1.33;;;;;;;21.76;100.00;101053.13;5068438;28;20037;-89
2023/09/25 06:35:52;;;;;;;2.75;2.55;;;;;;;21.75;100.00;101048.72;5069467;28;20031;-85
2023/09/25 06:38:19;;;;;;;1.80;1.70;;;;;;;21.69;100.00;101015.94;5059235;28;20033;-86
2023/09/25 06:40:45;;;;;;;5.43;2.97;;;;;;;22.05;100.00;101065.41;5049290;28;20447;-89
2023/09/25 06:43:12;;;;;;;2.03;1.85;;;;;;;22.06;100.00;101069.84;5048319;28;20037;-86
2023/09/25 06:45:40;;;;;;;0.70;0.70;;;;;;;21.52;100.00;100977.41;5054683;28;20097;-88
2023/09/25 06:48:07;;;;;;;1.63;1.23;;;;;;;22.11;100.00;101052.69;5063094;28;20075;-88
2023/09/25 06:50:33;;;;;;;2.30;1.27;;;;;;;22.09;100.00;101049.22;5048629;28;20045;-85
2023/09/25 06:52:58;;;;;;;2.90;2.63;;;;;;;22.15;100.00;101056.13;5049907;28;20526;-87
2023/09/25 06:55:26;;;;;;;2.67;2.50;;;;;;;22.25;100.00;101072.72;5058693;28;20071;-87
2023/09/25 06:57:52;;;;;;;0.75;0.70;;;;;;;22.12;100.00;101033.06;5070129;28;20060;-86
2023/09/25 07:00:18;;;;;;;1.55;1.42;;;;;;;21.89;100.00;100964.47;5066769;28;20032;-86
2023/09/25 07:02:44;;;;;;;0.75;0.75;;;;;;;22.21;100.00;101039.88;5068531;28;20639;-86
2023/09/25 07:05:10;;;;;;;4.03;2.25;;;;;;;22.45;100.00;101055.91;5067716;28;20037;-87
2023/09/25 07:07:39;;;;;;;1.10;0.98;;;;;;;22.05;100.00;100969.19;5048516;28;20076;-85
2023/09/25 07:10:09;;;;;;;1.35;1.25;;;;;;;22.54;100.00;101042.16;5029619;28;20041;-86
2023/09/25 07:12:35;;;;;;;1.65;1.55;;;;;;;22.43;100.00;101029.25;5048371;28;20110;-86
2023/09/25 07:15:02;;;;;;;2.47;1.27;;;;;;;22.26;100.00;100988.91;5053283;28;20029;-86
2023/09/25 07:17:29;;;;;;;3.53;3.22;;;;;;;22.74;100.00;101079.72;5054331;28;20033;-86
2023/09/25 07:19:55;;;;;;;1.77;1.42;;;;;;;22.66;100.00;101054.19;5054771;28;20114;-87
2023/09/25 07:22:22;;;;;;;2.72;2.10;;;;;;;22.47;100.00;101027.31;5033256;28;20071;-87
2023/09/25 07:24:48;;;;;;;1.38;1.33;;;;;;;22.87;100.00;101047.97;5030160;28;20113;-88
2023/09/25 07:27:14;;;;;;;2.42;2.15;;;;;;;22.90;100.00;101053.22;5053774;28;20029;-87
2023/09/25 07:29:44;;;;;;;2.17;1.05;;;;;;;23.01;100.00;101076.88;5068039;28;20024;-87
2023/09/25 07:32:11;;;;;;;2.15;2.00;;;;;;;22.82;100.00;101049.09;5069917;28;20037;-87
2023/09/25 07:34:37;;;;;;;1.60;1.50;;;;;;;22.82;100.00;101055.31;5041977;28;20096;-87
2023/09/25 07:37:04;;;;;;;1.67;1.48;;;;;;;22.61;100.00;101010.69;5047635;28;20072;-87
2023/09/25 07:39:30;;;;;;;1.63;1.00;;;;;;;23.06;100.00;101082.03;5029344;28;20104;-87
2023/09/25 07:41:56;;;;;;;1.20;1.10;;;;;;;21.97;100.00;100897.34;5048388;28;20067;-86
2023/09/25 07:44:26;;;;;;;1.35;1.17;;;;;;;22.96;100.00;101036.00;5051395;28;20051;-86
2023/09/25 07:46:57;;;;;;;1.95;1.83;;;;;;;22.70;100.00;100983.56;5066888;28;20075;-85
2023/09/25 07:49:23;;;;;;;0.93;0.85;;;;;;;23.02;100.00;101024.22;5050641;28;20144;-86
2023/09/25 07:51:51;;;;;;;5.47;2.78;;;;;;;23.54;100.00;101099.66;5047686;28;20095;-86
2023/09/25 07:54:17;;;;;;;1.35;1.25;;;;;;;23.49;100.00;101080.25;5047766;28;20017;-87
2023/09/25 07:56:42;;;;;;;2.22;2.05;;;;;;;23.08;100.00;100998.03;5065560;28;20052;-87
2023/09/25 07:59:08;;;;;;;1.27;1.02;;;;;;;23.03;100.00;101016.09;5066496;28;20056;-87
2023/09/25 08:01:35;;;;;;;1.40;0.95;;;;;;;23.35;100.00;101029.94;5048217;28;20182;-87
2023/09/25 08:04:00;;;;;;;1.33;1.13;;;;;;;23.91;100.00;101073.97;5046427;28;20087;-88
2023/09/25 08:06:27;;;;;;;1.65;1.38;;;;;;;23.98;100.00;101068.25;5049774;28;20084;-86
2023/09/25 08:08:57;;;;;;;2.47;2.28;;;;;;;23.94;100.00;101088.09;5028436;28;20523;-85
2023/09/25 08:11:22;;;;;;;1.27;0.93;;;;;;;23.96;100.00;101077.31;5012934;28;20114;-85
2023/09/25 08:13:48;;;;;;;0.88;0.85;;;;;;;23.85;100.00;101074.22;5047590;28;20037;-86
2023/09/25 08:16:14;;;;;;;2.28;1.70;;;;;;;23.56;100.00;101001.34;5047686;28;20118;-87
2023/09/25 08:18:40;;;;;;;0.60;0.60;;;;;;;23.43;100.00;100970.66;5046110;28;20033;-88
2023/09/25 08:21:06;;;;;;;1.80;0.80;;;;;;;23.67;100.00;100984.75;5046392;28;20074;-85
2023/09/25 08:23:32;;;;;;;1.20;1.00;;;;;;;23.72;100.00;100999.72;5057705;28;20033;-87
2023/09/25 08:25:57;;;;;;;1.73;1.25;;;;;;;23.56;100.00;100963.84;5053976;28;20138;-87
2023/09/25 08:28:23;;;;;;;1.00;0.90;;;;;;;23.56;100.00;100996.84;5047046;28;20599;-87
2023/09/25 08:30:49;;;;;;;2.15;1.95;;;;;;;24.19;100.00;101074.44;5054089;28;20040;-89
2023/09/25 08:33:15;;;;;;;2.22;1.35;;;;;;;24.06;100.00;101083.13;5045913;28;20477;-86
2023/09/25 08:35:44;;;;;;;1.85;1.63;;;;;;;24.00;100.00;101011.88;5046545;28;20036;-87
2023/09/25 08:38:10;;;;;;;1.30;0.90;;;;;;;24.15;100.00;101062.09;5062758;28;20089;-87
2023/09/25 08:40:38;;;;;;;0.50;0.50;;;;;;;24.10;100.00;101045.34;5058944;28;20128;-86
2023/09/25 08:43:06;;;;;;;4.68;1.13;;;;;;;23.37;100.00;100913.75;5039912;28;20036;-87
2023/09/25 08:45:33;;;;;;;1.00;0.63;;;;;;;24.35;100.00;101079.97;5048524;28;20037;-86
2023/09/25 08:47:58;;;;;;;58.50;5.43;;;;;;;24.23;100.00;101051.91;5055692;28;20048;-86
2023/09/25 08:50:24;;;;;;;3.50;2.10;;;;;;;24.46;100.00;101030.28;5046920;28;20477;-86
2023/09/25 08:52:51;;;;;;;0.50;0.50;;;;;;;24.08;100.00;100964.13;5046678;28;20446;-87
2023/09/25 08:55:16;;;;;;;2.63;2.08;;;;;;;24.30;100.00;100981.84;5066055;28;20076;-87
2023/09/25 08:57:43;;;;;;;1.83;1.65;;;;;;;24.33;100.00;100987.97;5065828;28;20083;-87
2023/09/25 09:00:11;;;;;;;1.40;1.13;;;;;;;24.84;100.00;101066.91;5046203;28;20130;-87
2023/09/25 09:02:43;;;;;;;0.30;0.30;;;;;;;24.74;100.00;101054.00;5047405;28;20052;-86
2023/09/25 09:05:13;;;;;;;1.83;1.67;;;;;;;24.57;100.00;101028.00;5045562;28;20040;-88
2023/09/25 09:07:59;;;;;;;1.23;1.13;;;;;;;24.95;97.71;101074.41;5028567;28;20049;-86
2023/09/25 09:10:30;;;;;;;1.08;0.95;;;;;;;24.70;96.37;101068.50;5046757;28;20141;-86
2023/09/25 09:12:56;;;;;;;2.63;1.80;;;;;;;24.93;98.40;101062.00;5046121;28;20153;-86
2023/09/25 09:15:28;;;;;;;2.63;1.90;;;;;;;25.05;97.79;101067.66;5046145;28;20704;-85
2023/09/25 09:17:55;;;;;;;2.13;1.57;;;;;;;24.96;95.73;101032.31;5046408;28;20033;-88
2023/09/25 09:20:22;;;;;;;1.85;0.82;;;;;;;24.57;93.73;100964.44;5045486;28;20122;-88
2023/09/25 09:22:54;;;;;;;0.85;0.73;;;;;;;25.28;92.60;101062.97;5047219;28;20049;-86
2023/09/25 09:25:24;;;;;;;1.88;1.20;;;;;;;24.99;89.43;101046.47;5049585;28;20579;-87
2023/09/25 09:27:50;;;;;;;1.67;1.58;;;;;;;25.15;88.83;101034.97;5059836;28;20044;-88
2023/09/25 09:30:28;;;;;;;0.93;0.85;;;;;;;25.33;87.19;101042.09;5071667;28;20029;-87
2023/09/25 09:32:54;;;;;;;1.30;1.10;;;;;;;25.54;88.28;101040.09;5069785;28;20033;-86
2023/09/25 09:35:27;;;;;;;0.80;0.63;;;;;;;25.20;86.67;100976.53;5072157;28;20475;-86
2023/09/25 09:37:54;;;;;;;0.68;0.60;;;;;;;25.52;83.24;101051.88;5051945;28;20187;-88
2023/09/25 09:40:25;;;;;;;0.90;0.68;;;;;;;25.36;84.81;101019.59;5050530;28;20096;-87
2023/09/25 09:42:51;;;;;;;0.95;0.65;;;;;;;25.09;84.41;100981.56;5052422;28;20045;-87
2023/09/25 09:45:18;;;;;;;11.57;2.53;;;;;;;25.19;82.67;100974.78;5048583;28;20155;-88
2023/09/25 09:47:46;;;;;;;1.55;1.38;;;;;;;25.48;78.59;101054.75;5040701;28;20381;-86
2023/09/25 09:50:17;;;;;;;1.98;0.82;;;;;;;25.56;78.93;101043.59;5059246;28;20051;-87
2023/09/25 09:52:45;;;;;;;0.77;0.77;;;;;;;25.15;80.72;100955.25;5067237;28;20098;-86
2023/09/25 09:55:12;;;;;;;1.42;1.25;;;;;;;25.67;76.82;101049.28;5049602;28;20037;-87
2023/09/25 09:57:39;;;;;;;1.08;0.75;;;;;;;25.98;77.35;101057.56;5030585;28;20136;-87
2023/09/25 10:00:07;;;;;;;1.77;1.13;;;;;;;25.71;73.60;101031.19;5048446;28;20036;-86
2023/09/25 10:02:34;;;;;;;1.17;1.08;;;;;;;26.06;72.35;101066.09;5051552;28;20062;-89
2023/09/25 10:05:00;;;;;;;5.15;2.60;;;;;;;25.82;73.23;101003.69;5067435;28;20040;-86
2023/09/25 10:07:27;;;;;;;1.35;1.27;;;;;;;26.19;74.23;101040.22;5047600;28;20534;-85
2023/09/25 10:10:13;;;;;;;2.30;1.42;;;;;;;26.01;72.18;101058.28;5064222;28;20147;-87
2023/09/25 10:12:48;;;;;;;1.02;0.95;;;;;;;26.16;70.15;101048.47;5068317;28;20056;-85
2023/09/25 10:15:23;;;;;;;2.75;2.53;;;;;;;26.07;67.58;101008.63;5069505;28;20032;-87
2023/09/25 10:17:49;;;;;;;5.50;3.63;;;;;;;25.74;65.97;100961.09;5050472;28;20031;-86
2023/09/25 10:20:36;;;;;;;2.17;1.73;;;;;;;26.13;64.52;101026.25;5048116;28;20048;-88
2023/09/25 10:23:16;;;;;;;3.50;1.40;;;;;;;25.72;62.75;100952.25;5048674;28;20090;-85
2023/09/25 10:25:55;;;;;;;0.45;0.28;;;;;;;26.14;61.09;101025.31;5049398;28;20091;-86
2023/09/25 10:28:27;;;;;;;0.65;0.60;;;;;;;26.41;59.79;101037.22;5063759;28;20147;-87
2023/09/25 10:31:04;;;;;;;6.40;2.35;;;;;;;26.91;58.05;101021.84;5075700;28;20051;-86
2023/09/25 10:33:37;;;;;;;3.92;1.58;;;;;;;27.28;57.00;101035.88;5042087;28;20105;-88
2023/09/25 10:36:04;;;;;;;1.65;1.02;;;;;;;27.27;55.93;101031.41;5072248;28;20029;-89
2023/09/25 10:38:36;;;;;;;1.35;1.15;;;;;;;27.14;54.92;101024.03;5049763;28;20590;-88
2023/09/25 10:41:06;;;;;;;0.45;0.45;;;;;;;26.72;56.29;100979.81;5048917;28;20053;-87
2023/09/25 10:43:33;;;;;;;1.40;1.30;;;;;;;26.99;54.80;100944.13;5048621;28;20516;-85
2023/09/25 10:46:00;;;;;;;0.77;0.70;;;;;;;27.14;53.68;100937.81;5052333;28;20128;-88
2023/09/25 10:48:27;;;;;;;1.58;1.48;;;;;;;27.90;52.47;101046.47;5060923;28;20515;-88
2023/09/25 10:50:54;;;;;;;0.63;0.63;;;;;;;27.73;50.71;101007.91;5048847;28;20457;-88
2023/09/25 10:53:21;;;;;;;0.75;0.70;;;;;;;27.89;50.63;101036.66;5047732;28;20070;-87
2023/09/25 10:55:47;;;;;;;1.98;1.83;;;;;;;27.33;50.97;100999.56;5058438;28;20049;-88
2023/09/25 10:58:14;;;;;;;0.57;0.57;;;;;;;27.19;51.34;100961.78;5067057;28;20047;-87
2023/09/25 11:00:41;;;;;;;8.75;2.05;;;;;;;27.56;50.55;101041.31;5049130;28;20115;-88
2023/09/25 11:03:09;;;;;;;1.50;1.40;;;;;;;27.53;51.58;101036.13;5067809;28;20052;-87
2023/09/25 11:05:36;;;;;;;0.65;0.60;;;;;;;27.59;52.65;101045.66;5040972;28;20102;-87
2023/09/25 11:08:04;;;;;;;1.75;1.33;;;;;;;27.41;51.95;101026.06;5048941;28;20214;-85
2023/09/25 11:10:31;;;;;;;0.80;0.80;;;;;;;27.27;52.32;100999.94;5048635;28;20155;-87
2023/09/25 11:12:59;;;;;;;0.85;0.80;;;;;;;27.15;53.02;101023.06;5047682;28;20045;-87
2023/09/25 11:15:26;;;;;;;1.98;1.80;;;;;;;27.57;52.56;101016.06;5047758;28;20768;-90
2023/09/25 11:17:51;;;;;;;2.72;1.85;;;;;;;26.97;52.91;101016.06;5043787;28;20099;-86